Time;durP1;ratioP1;P1;durP2;ratioP2;P2;SDS_P1;SDS_P2;PMS_P1;PMS_P2;Temp;Humidity;BMP_temperature;BMP_pressure;BME280_temperature;BME280_humidity;BME280_pressure;Samples;Min_cycle;Max_cycle;Signal;HPM_P1;HPM_P2
2022/01/01 00:02:24;;;;;;;9.33;5.40;;;20.40;80.80;;;;;;5117914;28;20444;-83
2022/01/01 00:05:05;;;;;;;9.87;5.67;;;20.40;80.80;;;;;;5100752;28;20472;-83
2022/01/01 00:07:33;;;;;;;10.20;5.87;;;20.40;80.90;;;;;;5111001;28;20461;-83
2022/01/01 00:10:01;;;;;;;12.10;5.50;;;20.30;80.70;;;;;;5107742;28;20453;-83
2022/01/01 00:12:30;;;;;;;12.13;5.83;;;20.40;80.70;;;;;;5112374;28;20467;-83
2022/01/01 00:14:59;;;;;;;14.17;6.17;;;20.40;80.70;;;;;;5115103;28;20514;-81
2022/01/01 00:17:27;;;;;;;10.40;5.90;;;20.30;80.60;;;;;;5116510;28;20448;-82
2022/01/01 00:19:55;;;;;;;8.40;5.80;;;20.30;80.50;;;;;;5113572;28;20424;-81
2022/01/01 00:22:43;;;;;;;12.03;5.90;;;20.30;80.50;;;;;;5109225;28;20467;-81
2022/01/01 00:25:12;;;;;;;10.80;5.70;;;20.30;80.40;;;;;;5095543;28;20488;-83
2022/01/01 00:27:40;;;;;;;15.33;6.20;;;20.30;80.40;;;;;;5108806;28;20463;-82
2022/01/01 00:30:11;;;;;;;21.33;6.27;;;20.30;80.40;;;;;;5102603;28;20490;-81
2022/01/01 00:32:39;;;;;;;10.73;5.90;;;20.30;80.20;;;;;;5112210;28;20550;-80
2022/01/01 00:35:08;;;;;;;10.57;6.07;;;20.30;80.20;;;;;;5108575;28;20474;-81
2022/01/01 00:37:36;;;;;;;10.53;6.03;;;20.20;80.10;;;;;;5115242;28;20459;-80
2022/01/01 00:40:05;;;;;;;12.47;6.60;;;20.20;80.00;;;;;;5116816;28;20459;-81
2022/01/01 00:42:33;;;;;;;13.47;5.67;;;20.20;80.20;;;;;;5103102;28;20464;-81
2022/01/01 00:45:01;;;;;;;8.83;5.80;;;20.20;80.10;;;;;;5106357;28;20451;-82
2022/01/01 00:47:30;;;;;;;11.90;5.73;;;20.20;80.00;;;;;;5107898;28;20508;-81
2022/01/01 00:49:58;;;;;;;16.20;6.27;;;20.20;79.80;;;;;;5114578;28;20439;-82
2022/01/01 00:52:26;;;;;;;12.60;6.90;;;20.20;79.80;;;;;;5105390;28;20515;-81
2022/01/01 00:54:54;;;;;;;9.13;5.63;;;20.20;79.80;;;;;;5102075;28;20469;-81
2022/01/01 00:57:22;;;;;;;10.60;5.87;;;20.20;79.60;;;;;;5100039;28;20857;-81
2022/01/01 00:59:49;;;;;;;10.60;6.30;;;20.20;79.80;;;;;;5116667;28;20627;-80
2022/01/01 01:02:18;;;;;;;9.40;6.00;;;20.20;79.70;;;;;;5115118;28;20472;-81
2022/01/01 01:04:47;;;;;;;11.17;6.20;;;20.20;79.60;;;;;;5114973;28;20558;-81
2022/01/01 01:07:15;;;;;;;11.03;6.00;;;20.20;79.60;;;;;;5117538;28;20424;-81
2022/01/01 01:09:43;;;;;;;8.90;5.73;;;20.20;79.60;;;;;;5118192;28;20470;-81
2022/01/01 01:12:20;;;;;;;11.70;5.60;;;20.20;79.50;;;;;;5111788;28;20433;-81
2022/01/01 01:14:48;;;;;;;13.73;5.30;;;20.10;79.40;;;;;;5104253;28;20539;-82
2022/01/01 01:17:16;;;;;;;10.40;6.10;;;20.10;79.40;;;;;;5108670;28;20535;-81
2022/01/01 01:19:44;;;;;;;7.97;5.70;;;20.20;79.40;;;;;;5119502;28;20538;-82
2022/01/01 01:22:13;;;;;;;10.73;5.80;;;20.20;79.50;;;;;;5111083;28;20502;-82
2022/01/01 01:24:41;;;;;;;14.80;5.93;;;20.20;79.20;;;;;;5110255;28;20478;-82
2022/01/01 01:27:09;;;;;;;7.63;5.50;;;20.20;79.30;;;;;;5114956;28;20467;-83
2022/01/01 01:29:41;;;;;;;8.80;6.10;;;20.20;79.10;;;;;;5114945;28;20472;-83
2022/01/01 01:32:09;;;;;;;11.97;6.20;;;20.10;79.00;;;;;;5108328;28;20478;-83
2022/01/01 01:34:37;;;;;;;9.53;5.50;;;20.10;79.10;;;;;;5118576;28;20495;-82
2022/01/01 01:37:05;;;;;;;9.43;6.00;;;20.10;79.10;;;;;;5114357;28;20534;-83
2022/01/01 01:39:34;;;;;;;12.13;6.10;;;20.10;79.00;;;;;;5109749;28;20447;-83
2022/01/01 01:42:03;;;;;;;10.87;5.93;;;20.20;78.90;;;;;;5103697;28;20543;-82
2022/01/01 01:44:33;;;;;;;9.20;5.50;;;20.10;78.70;;;;;;5109016;28;20460;-83
2022/01/01 01:47:02;;;;;;;8.00;5.23;;;20.20;78.80;;;;;;5118090;28;20530;-82
2022/01/01 01:49:30;;;;;;;13.23;6.33;;;20.10;78.80;;;;;;5116861;28;20463;-82
2022/01/01 01:51:58;;;;;;;12.60;6.57;;;20.20;78.90;;;;;;5116004;28;20531;-83
2022/01/01 01:54:26;;;;;;;8.10;5.80;;;20.10;78.90;;;;;;5117063;28;20540;-83
2022/01/01 01:56:56;;;;;;;7.07;5.23;;;20.10;78.60;;;;;;5117888;28;20456;-83
2022/01/01 01:59:24;;;;;;;10.27;6.17;;;20.10;78.60;;;;;;5103123;28;20479;-84
2022/01/01 02:01:52;;;;;;;11.13;6.10;;;20.10;78.70;;;;;;5099358;28;20448;-83
2022/01/01 02:04:20;;;;;;;10.97;6.80;;;20.10;78.50;;;;;;5103753;28;20485;-84
2022/01/01 02:06:48;;;;;;;11.30;6.00;;;20.20;78.50;;;;;;5119295;28;20508;-84
2022/01/01 02:09:17;;;;;;;12.23;6.37;;;20.10;78.40;;;;;;5120285;28;20468;-85
2022/01/01 02:11:45;;;;;;;11.37;6.27;;;20.10;78.40;;;;;;5118550;27;20439;-84
2022/01/01 02:14:21;;;;;;;9.33;5.83;;;20.10;78.30;;;;;;5109535;28;20486;-83
2022/01/01 02:19:49;;;;;;;11.83;6.97;;;20.10;78.20;;;;;;5108196;28;20437;-84
2022/01/01 02:22:18;;;;;;;12.60;6.90;;;20.10;78.00;;;;;;5114510;28;20466;-83
2022/01/01 02:24:47;;;;;;;8.43;5.43;;;20.10;78.30;;;;;;5117831;28;20503;-84
2022/01/01 02:27:15;;;;;;;11.63;6.60;;;20.10;78.30;;;;;;5117356;28;20530;-84
2022/01/01 02:29:43;;;;;;;9.53;6.10;;;20.10;78.00;;;;;;5117484;28;20444;-84
2022/01/01 02:32:13;;;;;;;13.43;6.60;;;20.10;78.10;;;;;;5111575;28;20453;-83
2022/01/01 02:34:41;;;;;;;14.43;6.63;;;20.10;78.10;;;;;;5111772;28;20546;-84
2022/01/01 02:37:09;;;;;;;12.50;6.80;;;20.10;78.00;;;;;;5116457;28;20479;-84
2022/01/01 02:39:38;;;;;;;10.47;6.00;;;20.10;78.00;;;;;;5118083;28;20531;-84
2022/01/01 02:42:08;;;;;;;10.00;5.93;;;20.10;78.00;;;;;;5118773;28;20535;-84
2022/01/01 02:44:36;;;;;;;10.77;6.43;;;20.10;78.00;;;;;;5118382;28;20479;-83
2022/01/01 02:47:04;;;;;;;9.70;6.30;;;20.10;77.90;;;;;;5103430;28;20444;-83
2022/01/01 02:49:32;;;;;;;14.13;6.70;;;20.20;77.90;;;;;;5116671;28;20499;-84
2022/01/01 02:52:00;;;;;;;10.43;6.60;;;20.10;77.90;;;;;;5123740;28;20443;-84
2022/01/01 02:54:27;;;;;;;12.93;5.97;;;20.10;77.80;;;;;;5117884;28;20522;-84
2022/01/01 02:56:57;;;;;;;14.97;6.10;;;20.10;77.90;;;;;;5117936;28;20440;-84
2022/01/01 02:59:38;;;;;;;15.10;6.10;;;20.10;77.80;;;;;;5118392;28;20479;-84
2022/01/01 03:02:05;;;;;;;11.27;5.90;;;20.20;77.60;;;;;;5118070;28;20523;-84
2022/01/01 03:04:34;;;;;;;13.63;6.47;;;20.10;77.60;;;;;;5117813;28;20547;-84
2022/01/01 03:07:02;;;;;;;9.57;6.20;;;20.10;77.70;;;;;;5117828;28;20483;-84
2022/01/01 03:09:34;;;;;;;13.43;6.60;;;20.10;77.60;;;;;;5118135;28;20420;-84
2022/01/01 03:12:04;;;;;;;15.87;6.50;;;20.10;77.80;;;;;;5118515;28;20535;-84
2022/01/01 03:14:32;;;;;;;10.73;6.23;;;20.10;77.60;;;;;;5118128;28;20985;-84
2022/01/01 03:17:00;;;;;;;9.67;6.00;;;20.10;77.70;;;;;;5117857;28;20476;-84
2022/01/01 03:19:28;;;;;;;10.67;5.10;;;20.10;77.60;;;;;;5117905;28;20516;-84
2022/01/01 03:21:57;;;;;;;8.93;6.13;;;20.10;77.60;;;;;;5117690;28;20474;-84
2022/01/01 03:24:25;;;;;;;14.07;6.50;;;20.10;77.60;;;;;;5117589;28;20479;-84
2022/01/01 03:26:53;;;;;;;9.57;6.30;;;20.10;77.60;;;;;;5118212;28;20443;-84
2022/01/01 03:29:23;;;;;;;10.97;6.50;;;20.10;77.60;;;;;;5100718;28;20461;-84
2022/01/01 03:31:51;;;;;;;9.40;6.07;;;20.10;77.40;;;;;;5097764;28;20428;-84
2022/01/01 03:34:21;;;;;;;8.63;6.10;;;20.10;77.40;;;;;;5097360;28;20502;-84
2022/01/01 03:36:49;;;;;;;11.43;6.37;;;20.10;77.30;;;;;;5097634;28;20451;-84
2022/01/01 03:39:17;;;;;;;15.50;6.43;;;20.10;77.50;;;;;;5097898;28;20428;-84
2022/01/01 03:41:45;;;;;;;10.70;6.40;;;20.10;77.30;;;;;;5097413;28;20468;-83
2022/01/01 03:44:13;;;;;;;12.33;6.20;;;20.10;77.60;;;;;;5096644;28;20480;-83
2022/01/01 03:46:43;;;;;;;11.93;6.60;;;20.10;77.40;;;;;;5097091;28;20460;-84
2022/01/01 03:49:11;;;;;;;12.30;6.10;;;20.10;77.30;;;;;;5097276;28;20435;-84
2022/01/01 03:51:39;;;;;;;13.33;6.53;;;20.20;77.30;;;;;;5097362;28;20440;-84
2022/01/01 03:54:07;;;;;;;11.57;6.17;;;20.10;77.80;;;;;;5097788;28;20476;-84
2022/01/01 03:56:37;;;;;;;14.93;6.97;;;20.10;77.20;;;;;;5097774;28;20449;-84
2022/01/01 03:59:04;;;;;;;10.87;6.47;;;20.10;77.10;;;;;;5098247;28;20456;-84
2022/01/01 04:01:33;;;;;;;9.80;6.07;;;20.10;77.30;;;;;;5098021;28;20468;-84
2022/01/01 04:04:02;;;;;;;15.53;6.23;;;20.10;77.30;;;;;;5112697;28;20490;-84
2022/01/01 04:06:30;;;;;;;10.03;6.30;;;20.10;77.30;;;;;;5117555;28;20447;-84
2022/01/01 04:08:59;;;;;;;10.37;6.37;;;20.10;77.20;;;;;;5117620;28;20455;-84
2022/01/01 04:11:26;;;;;;;13.37;6.00;;;20.10;77.10;;;;;;5118014;28;20443;-84
2022/01/01 04:13:55;;;;;;;13.23;6.90;;;20.00;77.10;;;;;;5117748;28;20463;-84
2022/01/01 04:16:23;;;;;;;12.57;6.53;;;20.10;77.00;;;;;;5118035;28;20420;-84
2022/01/01 04:18:51;;;;;;;14.50;7.30;;;20.10;77.00;;;;;;5117995;28;20453;-84
2022/01/01 04:21:22;;;;;;;10.40;6.43;;;20.10;77.10;;;;;;5116827;28;20525;-84
2022/01/01 04:23:50;;;;;;;11.13;6.50;;;20.10;77.10;;;;;;5117595;28;20467;-84
2022/01/01 04:26:18;;;;;;;10.47;6.40;;;20.10;77.20;;;;;;5118329;28;20485;-84
2022/01/01 04:28:46;;;;;;;13.67;6.60;;;20.00;76.90;;;;;;5118282;28;20431;-84
2022/01/01 04:31:15;;;;;;;11.00;6.33;;;20.10;77.00;;;;;;5118210;28;20542;-84
2022/01/01 04:33:43;;;;;;;14.83;6.93;;;20.10;76.90;;;;;;5117422;28;20790;-84
2022/01/01 04:36:12;;;;;;;11.40;6.80;;;20.10;76.90;;;;;;5116775;28;20502;-84
2022/01/01 04:38:42;;;;;;;12.37;6.97;;;20.00;76.70;;;;;;5114258;28;20532;-84
2022/01/01 04:41:12;;;;;;;9.93;6.70;;;20.10;77.00;;;;;;5101071;28;20406;-84
2022/01/01 04:43:45;;;;;;;9.30;6.30;;;20.10;76.80;;;;;;5101296;28;20435;-84
2022/01/01 04:46:13;;;;;;;15.00;8.07;;;20.00;76.80;;;;;;5100948;28;20451;-84
2022/01/01 04:48:42;;;;;;;14.90;7.00;;;20.10;76.80;;;;;;5100915;28;20426;-84
2022/01/01 04:51:10;;;;;;;13.57;7.10;;;20.10;77.00;;;;;;5101474;28;20410;-84
2022/01/01 04:53:39;;;;;;;16.43;6.30;;;20.00;76.90;;;;;;5100769;28;20483;-84
2022/01/01 04:56:08;;;;;;;13.33;6.53;;;20.00;76.70;;;;;;5120977;28;20506;-84
2022/01/01 04:58:37;;;;;;;13.80;7.43;;;20.10;76.70;;;;;;5121142;28;20467;-84
2022/01/01 05:01:05;;;;;;;9.43;6.83;;;20.00;76.70;;;;;;5120384;28;20443;-84
2022/01/01 05:03:33;;;;;;;10.00;6.57;;;20.10;76.80;;;;;;5121194;27;20475;-84
2022/01/01 05:06:01;;;;;;;14.00;7.67;;;20.00;76.70;;;;;;5120249;28;20443;-84
2022/01/01 05:08:29;;;;;;;15.03;7.70;;;20.10;76.80;;;;;;5121028;28;20424;-84
2022/01/01 05:10:57;;;;;;;11.20;6.63;;;20.00;76.70;;;;;;5120583;28;20566;-84
2022/01/01 05:13:26;;;;;;;15.00;7.60;;;20.10;76.50;;;;;;5100747;28;20476;-84
2022/01/01 05:15:55;;;;;;;12.03;7.23;;;20.00;76.50;;;;;;5100189;28;21021;-84
2022/01/01 05:18:23;;;;;;;13.00;7.63;;;20.00;76.70;;;;;;5100103;28;20441;-84
2022/01/01 05:20:52;;;;;;;14.60;8.47;;;20.10;76.70;;;;;;5100492;28;20440;-84
2022/01/01 05:23:19;;;;;;;14.00;7.73;;;20.00;76.60;;;;;;5099802;28;20468;-84
2022/01/01 05:25:48;;;;;;;12.30;7.73;;;20.00;76.40;;;;;;5100095;28;20475;-84
2022/01/01 05:28:16;;;;;;;16.67;7.90;;;20.00;76.50;;;;;;5106367;28;20487;-84
2022/01/01 05:30:45;;;;;;;13.63;8.73;;;20.00;76.50;;;;;;5120667;28;20435;-84
2022/01/01 05:33:15;;;;;;;15.80;7.93;;;20.00;76.30;;;;;;5120391;28;20450;-84
2022/01/01 05:35:43;;;;;;;14.60;8.10;;;20.00;76.50;;;;;;5120905;28;20479;-84
2022/01/01 05:38:11;;;;;;;14.97;8.30;;;20.00;76.40;;;;;;5120681;28;20424;-83
2022/01/01 05:40:53;;;;;;;12.30;7.63;;;20.00;76.40;;;;;;5120446;28;20418;-84
2022/01/01 05:43:21;;;;;;;12.80;8.47;;;20.00;76.40;;;;;;5121511;28;20444;-84
2022/01/01 05:45:50;;;;;;;17.07;9.63;;;20.00;76.60;;;;;;5119780;28;20489;-84
2022/01/01 05:48:19;;;;;;;16.83;9.50;;;20.00;76.40;;;;;;5119698;28;20428;-84
2022/01/01 05:50:47;;;;;;;14.77;8.10;;;20.00;76.30;;;;;;5120900;28;20423;-84
2022/01/01 05:53:15;;;;;;;18.77;9.20;;;20.00;76.30;;;;;;5121128;28;20444;-84
2022/01/01 05:55:44;;;;;;;13.17;8.53;;;20.00;76.40;;;;;;5120882;28;20521;-84
2022/01/01 05:58:11;;;;;;;15.23;8.80;;;20.00;76.10;;;;;;5120797;28;20435;-84
2022/01/01 06:00:40;;;;;;;14.13;8.57;;;20.00;76.10;;;;;;5120172;28;20444;-84
2022/01/01 06:03:09;;;;;;;15.20;8.93;;;20.00;76.20;;;;;;5119685;28;20448;-84
2022/01/01 06:05:37;;;;;;;14.20;9.10;;;20.00;76.20;;;;;;5119946;28;20529;-84
2022/01/01 06:08:06;;;;;;;16.27;9.63;;;20.00;76.70;;;;;;5119997;28;20444;-84
2022/01/01 06:10:33;;;;;;;17.57;9.20;;;20.00;76.00;;;;;;5120233;28;20538;-84
2022/01/01 06:13:01;;;;;;;17.67;9.63;;;20.00;76.10;;;;;;5119690;28;20803;-84
2022/01/01 06:15:29;;;;;;;17.77;10.70;;;20.00;76.80;;;;;;5119435;28;20558;-84
2022/01/01 06:17:57;;;;;;;16.07;8.87;;;20.00;76.10;;;;;;5119328;28;20478;-84
2022/01/01 06:20:27;;;;;;;16.83;9.60;;;20.00;76.10;;;;;;5118395;28;20470;-84
2022/01/01 06:23:03;;;;;;;15.77;9.27;;;20.00;76.10;;;;;;5098492;28;20411;-84
2022/01/01 06:25:32;;;;;;;17.67;9.80;;;19.90;75.90;;;;;;5099196;28;20475;-84
2022/01/01 06:27:59;;;;;;;23.23;10.60;;;20.00;76.20;;;;;;5099422;28;20468;-84
2022/01/01 06:30:33;;;;;;;17.80;10.40;;;20.00;76.10;;;;;;5098435;28;20474;-84
2022/01/01 06:33:03;;;;;;;17.87;10.33;;;20.00;75.80;;;;;;5098757;28;20432;-84
2022/01/01 06:35:32;;;;;;;16.10;10.60;;;20.00;76.00;;;;;;5097489;28;20463;-84
2022/01/01 06:38:00;;;;;;;20.07;10.50;;;20.00;75.80;;;;;;5103554;28;20451;-84
2022/01/01 06:40:28;;;;;;;21.37;11.50;;;20.00;75.90;;;;;;5098007;28;20464;-84
2022/01/01 06:42:56;;;;;;;17.73;10.50;;;20.00;75.80;;;;;;5097373;28;20491;-84
2022/01/01 06:45:24;;;;;;;21.40;11.40;;;20.00;75.80;;;;;;5098295;28;20563;-84
2022/01/01 06:47:52;;;;;;;21.40;11.17;;;20.00;75.80;;;;;;5098065;28;20535;-84
2022/01/01 06:50:20;;;;;;;19.60;11.90;;;20.00;75.90;;;;;;5098520;28;20424;-84
2022/01/01 06:52:50;;;;;;;21.83;11.60;;;20.00;75.80;;;;;;5098309;28;20451;-84
2022/01/01 06:55:18;;;;;;;17.93;11.00;;;20.00;75.80;;;;;;5108226;28;20471;-84
2022/01/01 06:57:46;;;;;;;17.07;10.67;;;20.00;75.70;;;;;;5118485;28;20514;-84
2022/01/01 07:00:15;;;;;;;19.57;12.10;;;20.00;75.80;;;;;;5118116;28;20463;-84
2022/01/01 07:02:43;;;;;;;22.67;11.67;;;20.00;75.90;;;;;;5118546;28;20486;-84
2022/01/01 07:05:13;;;;;;;23.53;13.30;;;19.90;75.80;;;;;;5118499;28;20477;-84
2022/01/01 07:07:41;;;;;;;20.90;11.23;;;20.00;75.90;;;;;;5118469;28;20479;-84
2022/01/01 07:10:11;;;;;;;18.27;11.50;;;20.00;75.70;;;;;;5118722;28;20522;-84
2022/01/01 07:12:39;;;;;;;19.40;11.13;;;20.00;75.60;;;;;;5119084;28;20483;-84
2022/01/01 07:15:08;;;;;;;21.63;12.20;;;20.00;75.70;;;;;;5118914;28;20456;-84
2022/01/01 07:17:36;;;;;;;23.13;12.20;;;20.00;75.70;;;;;;5118608;28;20464;-84
2022/01/01 07:20:04;;;;;;;21.40;12.43;;;20.00;75.70;;;;;;5118293;28;20436;-84
2022/01/01 07:22:33;;;;;;;21.00;12.30;;;20.00;75.60;;;;;;5118660;28;20442;-84
2022/01/01 07:25:04;;;;;;;22.93;12.33;;;20.00;75.70;;;;;;5120523;28;20455;-84
2022/01/01 07:27:33;;;;;;;21.40;12.80;;;20.00;75.60;;;;;;5125132;28;20435;-84
2022/01/01 07:30:01;;;;;;;23.50;13.73;;;20.00;75.50;;;;;;5123677;28;20409;-83
2022/01/01 07:32:29;;;;;;;22.33;13.63;;;20.00;75.50;;;;;;5117122;28;20432;-84
2022/01/01 07:34:57;;;;;;;22.70;12.73;;;20.00;75.70;;;;;;5118653;28;20478;-84
2022/01/01 07:37:25;;;;;;;23.67;12.27;;;20.00;75.40;;;;;;5118050;28;20475;-84
2022/01/01 07:39:53;;;;;;;20.70;12.80;;;20.00;75.40;;;;;;5118607;28;20493;-84
2022/01/01 07:42:21;;;;;;;18.83;12.73;;;20.00;75.40;;;;;;5118557;28;20472;-84
2022/01/01 07:44:50;;;;;;;24.33;14.00;;;20.00;75.50;;;;;;5117834;28;20551;-84
2022/01/01 07:47:18;;;;;;;21.17;13.30;;;20.00;75.30;;;;;;5118336;28;20473;-84
2022/01/01 07:49:46;;;;;;;22.67;13.67;;;19.90;75.40;;;;;;5117900;28;20535;-84
2022/01/01 07:52:18;;;;;;;25.67;14.33;;;20.00;75.50;;;;;;5118225;28;20526;-84
2022/01/01 07:54:46;;;;;;;22.50;13.00;;;19.90;75.20;;;;;;5117714;28;20466;-84
2022/01/01 07:57:15;;;;;;;22.93;14.03;;;19.90;75.30;;;;;;5117362;28;20464;-84
2022/01/01 07:59:43;;;;;;;25.13;14.93;;;19.90;75.30;;;;;;5117769;28;20931;-84
2022/01/01 08:02:13;;;;;;;23.77;14.73;;;20.00;75.30;;;;;;5116289;28;20503;-84
2022/01/01 08:04:42;;;;;;;25.10;14.93;;;20.00;75.40;;;;;;5117050;28;20500;-84
2022/01/01 08:07:10;;;;;;;24.43;14.23;;;20.00;75.30;;;;;;5116649;28;20443;-84
2022/01/01 08:09:58;;;;;;;25.30;14.30;;;20.00;75.30;;;;;;5117984;28;20431;-84
2022/01/01 08:12:26;;;;;;;22.57;13.00;;;20.00;75.30;;;;;;5117024;28;20446;-84
2022/01/01 08:14:56;;;;;;;22.67;13.80;;;20.00;75.30;;;;;;5117406;28;20440;-84
2022/01/01 08:17:26;;;;;;;20.23;13.00;;;20.00;75.00;;;;;;5116781;28;20492;-84
2022/01/01 08:19:54;;;;;;;28.20;15.23;;;20.00;75.20;;;;;;5117364;28;20463;-83
2022/01/01 08:22:22;;;;;;;25.97;14.43;;;20.00;75.10;;;;;;5116999;28;20471;-83
2022/01/01 08:24:50;;;;;;;22.40;13.23;;;20.00;75.00;;;;;;5105642;28;20531;-83
2022/01/01 08:27:18;;;;;;;19.93;12.80;;;20.00;75.10;;;;;;5117146;28;20535;-83
2022/01/01 08:29:45;;;;;;;23.70;14.17;;;20.00;75.00;;;;;;5117323;28;20467;-83
2022/01/01 08:32:14;;;;;;;22.03;14.90;;;20.00;75.00;;;;;;5117851;28;20436;-83
2022/01/01 08:34:43;;;;;;;24.13;14.70;;;20.00;75.10;;;;;;5117322;28;20488;-83
2022/01/01 08:37:11;;;;;;;24.73;13.50;;;20.00;74.80;;;;;;5117528;28;20497;-83
2022/01/01 08:39:39;;;;;;;26.50;14.83;;;20.00;74.80;;;;;;5117886;28;20542;-83
2022/01/01 08:42:09;;;;;;;20.97;13.33;;;20.10;75.10;;;;;;5117246;28;20471;-83
2022/01/01 08:44:37;;;;;;;23.33;13.80;;;20.00;74.90;;;;;;5117357;28;20487;-83
2022/01/01 08:47:05;;;;;;;22.47;13.73;;;20.00;75.00;;;;;;5117063;28;20428;-83
2022/01/01 08:49:34;;;;;;;26.43;14.30;;;20.00;75.50;;;;;;5117516;28;20455;-84
2022/01/01 08:52:04;;;;;;;21.60;13.47;;;20.00;74.90;;;;;;5117710;28;20456;-84
2022/01/01 08:54:32;;;;;;;22.57;13.20;;;20.00;74.80;;;;;;5117026;28;20470;-84
2022/01/01 08:57:00;;;;;;;23.73;13.97;;;20.10;74.80;;;;;;5111988;28;20504;-84
2022/01/01 08:59:32;;;;;;;24.60;14.80;;;20.10;74.70;;;;;;5096819;28;20489;-84
2022/01/01 09:02:01;;;;;;;21.77;13.27;;;20.10;74.70;;;;;;5114554;28;20468;-84
2022/01/01 09:04:29;;;;;;;19.33;13.07;;;20.10;74.50;;;;;;5118029;28;20460;-84
2022/01/01 09:06:57;;;;;;;24.47;14.30;;;20.10;74.50;;;;;;5117340;28;20436;-85
2022/01/01 09:09:26;;;;;;;22.00;13.33;;;20.10;74.60;;;;;;5116762;28;20474;-83
2022/01/01 09:11:55;;;;;;;23.63;12.90;;;20.10;74.50;;;;;;5115580;28;20508;-83
2022/01/01 09:14:23;;;;;;;22.67;14.27;;;20.10;74.50;;;;;;5115593;28;20520;-83
2022/01/01 09:16:51;;;;;;;20.60;13.60;;;20.10;74.50;;;;;;5115023;28;20451;-83
2022/01/01 09:19:20;;;;;;;24.17;13.23;;;20.20;74.50;;;;;;5116078;28;20435;-83
2022/01/01 09:21:47;;;;;;;20.87;12.57;;;20.20;74.50;;;;;;5115701;28;20519;-83
2022/01/01 09:24:16;;;;;;;26.57;12.73;;;20.10;74.30;;;;;;5117520;28;20471;-83
2022/01/01 09:26:45;;;;;;;21.83;12.90;;;20.10;74.30;;;;;;5119492;28;20942;-83
2022/01/01 09:29:13;;;;;;;23.20;13.00;;;20.10;74.40;;;;;;5119776;28;20503;-83
2022/01/01 09:31:41;;;;;;;22.53;13.37;;;20.10;74.40;;;;;;5118957;28;20531;-83
2022/01/01 09:34:09;;;;;;;21.67;12.97;;;20.10;74.30;;;;;;5119008;28;20503;-83
2022/01/01 09:36:38;;;;;;;22.60;13.10;;;20.10;74.40;;;;;;5118816;28;20500;-83
2022/01/01 09:39:06;;;;;;;22.90;13.00;;;20.20;74.50;;;;;;5117902;28;20497;-83
2022/01/01 09:41:34;;;;;;;23.53;13.57;;;20.20;74.30;;;;;;5118148;28;20530;-83
2022/01/01 09:44:05;;;;;;;21.17;13.27;;;20.20;74.40;;;;;;5118490;28;20468;-83
2022/01/01 09:46:37;;;;;;;22.20;13.17;;;20.20;74.40;;;;;;5118376;28;20507;-83
2022/01/01 09:49:05;;;;;;;24.07;13.47;;;20.20;74.20;;;;;;5118643;28;20777;-83
2022/01/01 09:51:32;;;;;;;20.30;13.27;;;20.20;74.20;;;;;;5118250;28;20510;-83
2022/01/01 09:54:01;;;;;;;19.70;13.20;;;20.20;74.20;;;;;;5114131;28;21043;-83
2022/01/01 09:56:29;;;;;;;23.33;13.33;;;20.20;74.20;;;;;;5108786;28;20440;-83
2022/01/01 09:58:57;;;;;;;21.03;12.53;;;20.20;74.30;;;;;;5105876;28;20495;-83
2022/01/01 10:01:26;;;;;;;24.00;13.87;;;20.20;74.20;;;;;;5107779;28;20436;-83
2022/01/01 10:03:56;;;;;;;18.20;11.70;;;20.30;74.20;;;;;;5107948;28;20444;-83
2022/01/01 10:09:16;;;;;;;23.27;12.87;;;20.30;74.00;;;;;;5115500;28;20910;-83
2022/01/01 10:11:44;;;;;;;19.30;12.50;;;20.30;74.10;;;;;;5118494;28;20519;-83
2022/01/01 10:14:14;;;;;;;21.83;11.70;;;20.40;74.10;;;;;;5118050;28;20513;-83
2022/01/01 10:16:44;;;;;;;21.47;12.43;;;20.40;74.10;;;;;;5118769;28;20484;-83
2022/01/01 10:19:12;;;;;;;23.50;13.27;;;20.40;74.00;;;;;;5118416;28;20482;-83
2022/01/01 10:21:42;;;;;;;21.27;11.93;;;20.40;73.80;;;;;;5118338;28;20478;-84
2022/01/01 10:24:14;;;;;;;20.20;11.93;;;20.40;73.80;;;;;;5118595;28;20507;-83
2022/01/01 10:29:30;;;;;;;19.73;12.33;;;20.40;73.80;;;;;;5118296;28;20455;-83
2022/01/01 10:32:00;;;;;;;21.23;12.50;;;20.40;73.80;;;;;;5118016;28;20455;-83
2022/01/01 10:34:29;;;;;;;21.43;12.53;;;20.40;73.70;;;;;;5117585;28;20447;-84
2022/01/01 10:36:58;;;;;;;18.37;12.17;;;20.40;73.70;;;;;;5105536;28;20536;-83
2022/01/01 10:39:26;;;;;;;16.93;11.07;;;20.40;73.70;;;;;;5118286;28;20495;-83
2022/01/01 10:41:55;;;;;;;18.33;11.40;;;20.50;73.80;;;;;;5116835;28;20483;-83
2022/01/01 10:44:27;;;;;;;19.03;11.73;;;20.50;73.70;;;;;;5117448;28;20452;-83
2022/01/01 10:46:56;;;;;;;22.63;12.00;;;20.50;73.60;;;;;;5118111;28;20436;-84
2022/01/01 10:49:37;;;;;;;19.67;12.10;;;20.50;73.60;;;;;;5118233;28;20470;-84
2022/01/01 10:52:13;;;;;;;20.87;11.60;;;20.50;73.50;;;;;;5118245;28;20410;-83
2022/01/01 10:54:55;;;;;;;20.50;12.10;;;20.50;73.50;;;;;;5117778;28;20505;-83
2022/01/01 10:57:28;;;;;;;16.90;11.70;;;20.50;73.60;;;;;;5117510;28;20509;-83
2022/01/01 11:00:07;;;;;;;27.83;12.37;;;20.50;73.50;;;;;;5098402;28;20551;-83
2022/01/01 11:02:35;;;;;;;22.27;13.37;;;20.60;73.50;;;;;;5097065;28;20467;-83
2022/01/01 11:05:04;;;;;;;23.67;13.27;;;20.60;73.60;;;;;;5097142;28;20480;-83
2022/01/01 11:07:32;;;;;;;17.40;11.83;;;20.60;73.50;;;;;;5096737;28;20444;-83
2022/01/01 11:10:01;;;;;;;19.10;11.97;;;20.60;73.50;;;;;;5096795;28;20421;-84
2022/01/01 11:12:29;;;;;;;22.03;12.80;;;20.60;73.60;;;;;;5102042;28;20466;-84
2022/01/01 11:15:07;;;;;;;19.60;12.70;;;20.60;73.50;;;;;;5116936;28;20493;-83
2022/01/01 11:17:35;;;;;;;21.37;12.73;;;20.70;73.40;;;;;;5115805;28;20443;-82
2022/01/01 11:20:06;;;;;;;21.33;12.43;;;20.70;73.40;;;;;;5120327;28;20474;-82
2022/01/01 11:22:34;;;;;;;21.03;13.03;;;20.80;73.40;;;;;;5129128;28;20466;-84
2022/01/01 11:25:03;;;;;;;23.30;11.80;;;20.80;73.30;;;;;;5111439;28;20527;-85
2022/01/01 11:27:32;;;;;;;21.20;12.40;;;20.80;73.10;;;;;;5107319;28;20444;-85
2022/01/01 11:30:03;;;;;;;24.20;13.43;;;20.80;73.10;;;;;;5104129;28;20445;-85
2022/01/01 11:32:39;;;;;;;19.83;12.07;;;20.90;73.10;;;;;;5110497;28;20477;-84
2022/01/01 11:35:11;;;;;;;20.10;12.30;;;21.00;73.20;;;;;;5122024;28;20445;-83
2022/01/01 11:37:47;;;;;;;20.37;13.30;;;21.00;73.10;;;;;;5129599;28;20429;-84
2022/01/01 11:40:18;;;;;;;21.27;13.07;;;21.00;72.90;;;;;;5129571;28;20467;-83
2022/01/01 11:42:46;;;;;;;20.70;13.53;;;21.10;72.80;;;;;;5124309;28;20429;-84
2022/01/01 11:45:39;;;;;;;20.03;13.00;;;21.10;72.60;;;;;;5102210;28;20542;-84
2022/01/01 11:48:35;;;;;;;20.03;12.90;;;21.10;72.30;;;;;;5122045;28;20440;-84
2022/01/01 11:51:26;;;;;;;23.37;13.57;;;21.20;72.30;;;;;;5118161;28;20451;-84
2022/01/01 11:54:08;;;;;;;21.90;14.20;;;21.20;72.30;;;;;;5115521;28;20504;-84
2022/01/01 11:57:12;;;;;;;22.50;13.30;;;21.20;72.40;;;;;;5117931;28;20485;-83
2022/01/01 12:00:21;;;;;;;20.13;13.40;;;21.20;72.20;;;;;;5119430;28;20445;-85
2022/01/01 12:03:18;;;;;;;20.70;13.50;;;21.30;72.40;;;;;;5125549;28;20406;-82
2022/01/01 12:06:18;;;;;;;25.63;14.50;;;21.30;72.30;;;;;;5126994;28;20439;-85
2022/01/01 12:08:48;;;;;;;21.07;12.40;;;21.40;72.30;;;;;;5120780;28;20451;-80
2022/01/01 12:11:29;;;;;;;25.50;13.20;;;21.40;72.60;;;;;;5120604;28;20451;-81
2022/01/01 12:13:57;;;;;;;22.50;12.37;;;21.90;74.50;;;;;;5120255;28;20495;-80
2022/01/01 12:16:26;;;;;;;34.37;11.93;;;22.30;73.60;;;;;;5117181;28;20458;-82
2022/01/01 12:19:02;;;;;;;30.40;10.80;;;22.60;73.20;;;;;;5114904;28;20427;-83
2022/01/01 12:21:38;;;;;;;26.57;12.70;;;22.90;71.40;;;;;;5098441;28;20855;-83
2022/01/01 12:24:11;;;;;;;33.90;10.70;;;23.00;71.90;;;;;;5117752;28;20497;-83
2022/01/01 12:26:39;;;;;;;27.27;12.20;;;23.20;71.00;;;;;;5125165;28;20406;-84
2022/01/01 12:29:09;;;;;;;26.67;10.10;;;23.30;69.90;;;;;;5124108;28;20511;-85
2022/01/01 12:31:54;;;;;;;34.03;11.60;;;23.40;70.10;;;;;;5124280;28;20531;-84
2022/01/01 12:34:23;;;;;;;19.10;10.63;;;23.50;69.20;;;;;;5121409;28;20494;-83
2022/01/01 12:36:52;;;;;;;30.93;10.93;;;23.60;68.90;;;;;;5105301;28;20408;-82
2022/01/01 12:39:22;;;;;;;20.83;9.40;;;23.60;68.50;;;;;;5104498;28;20708;-84
2022/01/01 12:41:54;;;;;;;19.53;10.23;;;23.70;68.30;;;;;;5120139;28;20463;-82
2022/01/01 12:44:23;;;;;;;20.00;9.37;;;23.70;68.20;;;;;;5120689;28;20434;-80
2022/01/01 12:46:57;;;;;;;17.60;9.20;;;23.70;67.90;;;;;;5120463;28;20439;-84
2022/01/01 12:49:26;;;;;;;17.93;10.13;;;23.70;68.10;;;;;;5119335;28;20531;-83
2022/01/01 12:51:59;;;;;;;17.60;9.50;;;23.80;68.20;;;;;;5113382;28;20447;-83
2022/01/01 12:54:29;;;;;;;19.60;9.70;;;23.70;68.00;;;;;;5121265;28;20438;-82
2022/01/01 12:57:01;;;;;;;20.43;10.00;;;23.70;68.00;;;;;;5099700;28;20419;-81